Wan Hai 501 — S6AS7 — position and weather

sailwx.info

Track history (hours):
 
Tides and Currents Weather Stations Pressure Air Temp Water Temp Dewpoint Dewpoint Depression Visibility Wind Speed Wind Dir Waves Ship Positions

Wan Hai 501

Last reported at 2015-Aug-20 15:28 UTC. Time now 2015-Aug-30 22:35 UTC.
Position N 03°33' E 100°41'.
Warning: this ship's position is 10 days out of date.

Length 268 m; draft 10.5 m.

Type: Cargo ship. MMSI: 563382000.

Date/timePositionNaut miles runAvg speedWind from/ knotsBaromVisibWave heightAir tempDewpointWater temp
2015-Aug-20 15:28N 03°33' E 100°41'2714.1
2015-Aug-20 13:33N 03°20' E 101°05'24 8.0
2015-Aug-20 10:31N 03°02' E 101°21'0 0.0
2015-Aug-20 08:31N 03°02' E 101°21'0 0.0
2015-Aug-20 06:28N 03°02' E 101°21'0 0.0
2015-Aug-20 04:31N 03°02' E 101°21'0 0.0
2015-Aug-20 02:31N 03°02' E 101°21'1 0.5
2015-Aug-20 00:33N 03°01' E 101°21'13 6.6
2015-Aug-19 22:33N 02°49' E 101°16'0 0.1
2015-Aug-19 20:33N 02°49' E 101°16'0 0.0
2015-Aug-19 17:33N 02°49' E 101°16'0 0.1
2015-Aug-19 15:24N 02°49' E 101°16'0 0.0
2015-Aug-19 13:33N 02°49' E 101°16'0 0.0
2015-Aug-19 12:12N 02°49' E 101°16'0 0.0
2015-Aug-19 10:33N 02°49' E 101°16'0 0.1
2015-Aug-19 08:27N 02°49' E 101°16'0 0.0
2015-Aug-19 06:33N 02°49' E 101°16'0 0.0
2015-Aug-19 04:30N 02°49' E 101°16'0 0.1
2015-Aug-19 03:15N 02°49' E 101°16'0 0.2
2015-Aug-19 01:33N 02°49' E 101°16'19 9.3
2015-Aug-18 23:34N 02°35' E 101°29'3416.3
2015-Aug-18 21:29N 02°14' E 101°55'12115.3
2015-Aug-18 13:32N 01°12' E 103°40'8 8.0
2015-Aug-18 12:34N 01°17' E 103°46'0 0.0
2015-Aug-18 11:32N 01°17' E 103°46'0 0.0
2015-Aug-18 10:32N 01°17' E 103°46'0 0.0
2015-Aug-18 09:32N 01°17' E 103°46'0 0.0
2015-Aug-18 08:20N 01°17' E 103°46'0 0.0
2015-Aug-18 07:32N 01°17' E 103°46'0 0.0
2015-Aug-18 06:32N 01°17' E 103°46'0 0.0
2015-Aug-18 05:32N 01°17' E 103°46'0 0.0
2015-Aug-18 04:32N 01°17' E 103°46'0 0.0
2015-Aug-18 04:08N 01°17' E 103°46'0 0.0
2015-Aug-18 03:32N 01°17' E 103°46'0 0.0
2015-Aug-18 02:32N 01°17' E 103°46'0 0.0
2015-Aug-18 01:32N 01°17' E 103°46'0 0.0
2015-Aug-18 00:23N 01°17' E 103°46'1 1.3
2015-Aug-17 23:34N 01°17' E 103°45'7 7.2
2015-Aug-17 22:33N 01°12' E 103°50'6 6.3
2015-Aug-17 21:34N 01°14' E 103°56'9 8.9
2015-Aug-17 20:34N 01°16' E 104°05'9 8.7
2015-Aug-17 19:28N 01°18' E 104°14'  
2015-Aug-13 01:25N 22°12' E 114°10'8 9.2
2015-Aug-13 00:33N 22°19' E 114°07'1 1.2
2015-Aug-12 23:33N 22°20' E 114°08'0 0.0
2015-Aug-12 22:33N 22°20' E 114°08'0 0.0
2015-Aug-12 21:33N 22°20' E 114°08'0 0.0
2015-Aug-12 20:33N 22°20' E 114°08'0 0.0
2015-Aug-12 19:33N 22°20' E 114°08'0 0.0
2015-Aug-12 18:24N 22°20' E 114°08'0 0.0
2015-Aug-12 17:33N 22°20' E 114°08'0 0.0
2015-Aug-12 16:30N 22°20' E 114°08'0 0.0
2015-Aug-12 15:33N 22°20' E 114°08'0 0.0
2015-Aug-12 14:33N 22°20' E 114°08'2 2.1
2015-Aug-12 13:33N 22°19' E 114°06'12 9.2
2015-Aug-12 12:18N 22°09' E 114°13'911.5
2015-Aug-12 11:33N 22°10' E 114°23'16 2.6
2015-Aug-12 05:33N 22°17' E 114°38'144 8.8
2015-Aug-11 13:13N 22°58' E 117°07'11113.9
2015-Aug-11 05:14N 24°08' E 118°41'1415.0
2015-Aug-11 04:20N 24°17' E 118°52'2914.6
2015-Aug-11 02:20N 24°36' E 119°17'6114.1
2015-Aug-10 22:03N 25°21' E 120°02'  
Track history (hours):
 
Tides and Currents Weather Stations Pressure Air Temp Water Temp Dewpoint Dewpoint Depression Visibility Wind Speed Wind Dir Waves Ship Positions

Wan Hai 501

Last reported at 2015-Aug-20 15:28 UTC. Time now 2015-Aug-30 22:35 UTC.
Position N 03°33' E 100°41'.
Warning: this ship's position is 10 days out of date.

Length 268 m; draft 10.5 m.

Type: Cargo ship. MMSI: 563382000.

Date/timePositionNaut miles runAvg speedWind from/ knotsBaromVisibWave heightAir tempDewpointWater temp
2015-Aug-20 15:28N 03°33' E 100°41'2714.1
2015-Aug-20 13:33N 03°20' E 101°05'24 8.0
2015-Aug-20 10:31N 03°02' E 101°21'0 0.0
2015-Aug-20 08:31N 03°02' E 101°21'0 0.0
2015-Aug-20 06:28N 03°02' E 101°21'0 0.0
2015-Aug-20 04:31N 03°02' E 101°21'0 0.0
2015-Aug-20 02:31N 03°02' E 101°21'1 0.5
2015-Aug-20 00:33N 03°01' E 101°21'13 6.6
2015-Aug-19 22:33N 02°49' E 101°16'0 0.1
2015-Aug-19 20:33N 02°49' E 101°16'0 0.0
2015-Aug-19 17:33N 02°49' E 101°16'0 0.1
2015-Aug-19 15:24N 02°49' E 101°16'0 0.0
2015-Aug-19 13:33N 02°49' E 101°16'0 0.0
2015-Aug-19 12:12N 02°49' E 101°16'0 0.0
2015-Aug-19 10:33N 02°49' E 101°16'0 0.1
2015-Aug-19 08:27N 02°49' E 101°16'0 0.0
2015-Aug-19 06:33N 02°49' E 101°16'0 0.0
2015-Aug-19 04:30N 02°49' E 101°16'0 0.1
2015-Aug-19 03:15N 02°49' E 101°16'0 0.2
2015-Aug-19 01:33N 02°49' E 101°16'19 9.3
2015-Aug-18 23:34N 02°35' E 101°29'3416.3
2015-Aug-18 21:29N 02°14' E 101°55'12115.3
2015-Aug-18 13:32N 01°12' E 103°40'8 8.0
2015-Aug-18 12:34N 01°17' E 103°46'0 0.0
2015-Aug-18 11:32N 01°17' E 103°46'0 0.0
2015-Aug-18 10:32N 01°17' E 103°46'0 0.0
2015-Aug-18 09:32N 01°17' E 103°46'0 0.0
2015-Aug-18 08:20N 01°17' E 103°46'0 0.0
2015-Aug-18 07:32N 01°17' E 103°46'0 0.0
2015-Aug-18 06:32N 01°17' E 103°46'0 0.0
2015-Aug-18 05:32N 01°17' E 103°46'0 0.0
2015-Aug-18 04:32N 01°17' E 103°46'0 0.0
2015-Aug-18 04:08N 01°17' E 103°46'0 0.0
2015-Aug-18 03:32N 01°17' E 103°46'0 0.0
2015-Aug-18 02:32N 01°17' E 103°46'0 0.0
2015-Aug-18 01:32N 01°17' E 103°46'0 0.0
2015-Aug-18 00:23N 01°17' E 103°46'1 1.3
2015-Aug-17 23:34N 01°17' E 103°45'7 7.2
2015-Aug-17 22:33N 01°12' E 103°50'6 6.3
2015-Aug-17 21:34N 01°14' E 103°56'9 8.9
2015-Aug-17 20:34N 01°16' E 104°05'9 8.7
2015-Aug-17 19:28N 01°18' E 104°14'  
2015-Aug-13 01:25N 22°12' E 114°10'8 9.2
2015-Aug-13 00:33N 22°19' E 114°07'1 1.2
2015-Aug-12 23:33N 22°20' E 114°08'0 0.0
2015-Aug-12 22:33N 22°20' E 114°08'0 0.0
2015-Aug-12 21:33N 22°20' E 114°08'0 0.0
2015-Aug-12 20:33N 22°20' E 114°08'0 0.0
2015-Aug-12 19:33N 22°20' E 114°08'0 0.0
2015-Aug-12 18:24N 22°20' E 114°08'0 0.0
2015-Aug-12 17:33N 22°20' E 114°08'0 0.0
2015-Aug-12 16:30N 22°20' E 114°08'0 0.0
2015-Aug-12 15:33N 22°20' E 114°08'0 0.0
2015-Aug-12 14:33N 22°20' E 114°08'2 2.1
2015-Aug-12 13:33N 22°19' E 114°06'12 9.2
2015-Aug-12 12:18N 22°09' E 114°13'911.5
2015-Aug-12 11:33N 22°10' E 114°23'16 2.6
2015-Aug-12 05:33N 22°17' E 114°38'144 8.8
2015-Aug-11 13:13N 22°58' E 117°07'11113.9
2015-Aug-11 05:14N 24°08' E 118°41'1415.0
2015-Aug-11 04:20N 24°17' E 118°52'2914.6
2015-Aug-11 02:20N 24°36' E 119°17'6114.1
2015-Aug-10 22:03N 25°21' E 120°02'  

Dump ship's entire track history